Time;durP1;ratioP1;P1;durP2;ratioP2;P2;SDS_P1;SDS_P2;PMS_P1;PMS_P2;Temp;Humidity;BMP_temperature;BMP_pressure;BME280_temperature;BME280_humidity;BME280_pressure;Samples;Min_cycle;Max_cycle;Signal;HPM_P1;HPM_P2
2022/05/21 00:00:22;;;;;;;168.35;160.95;;;13.50;99.90;;;;;;5031665;28;20687;-73
2022/05/21 00:02:50;;;;;;;189.93;181.27;;;13.40;99.90;;;;;;5042323;28;20197;-73
2022/05/21 00:05:18;;;;;;;182.00;173.90;;;13.50;99.90;;;;;;5035691;28;20183;-73
2022/05/21 00:07:44;;;;;;;179.18;171.35;;;13.50;99.90;;;;;;5031589;28;20194;-73
2022/05/21 00:10:15;;;;;;;183.73;175.60;;;13.50;99.90;;;;;;5033266;28;20186;-73
2022/05/21 00:12:42;;;;;;;185.10;176.98;;;13.40;99.90;;;;;;5042105;28;20229;-73
2022/05/21 00:15:10;;;;;;;183.15;175.23;;;13.50;99.90;;;;;;5046182;28;20187;-73
2022/05/21 00:17:36;;;;;;;177.77;170.15;;;13.50;99.90;;;;;;5032850;28;20187;-73
2022/05/21 00:20:03;;;;;;;186.70;178.50;;;13.40;99.90;;;;;;5032480;28;20289;-73
2022/05/21 00:22:29;;;;;;;184.82;176.18;;;13.30;99.90;;;;;;5048130;28;20305;-73
2022/05/21 00:24:55;;;;;;;187.10;178.88;;;13.30;99.90;;;;;;5032326;28;20223;-73
2022/05/21 00:27:20;;;;;;;186.25;178.45;;;13.30;99.90;;;;;;5032103;28;20179;-73
2022/05/21 00:29:46;;;;;;;190.63;182.70;;;13.40;99.90;;;;;;5041306;28;20197;-73
2022/05/21 00:32:15;;;;;;;192.65;184.30;;;13.50;99.90;;;;;;5044758;28;20254;-73
2022/05/21 00:34:41;;;;;;;198.60;189.90;;;13.50;99.90;;;;;;5031938;28;20190;-74
2022/05/21 00:37:07;;;;;;;196.25;187.38;;;13.50;99.90;;;;;;5031880;28;20214;-73
2022/05/21 00:39:32;;;;;;;198.45;189.52;;;13.40;99.90;;;;;;5033205;28;20206;-73
2022/05/21 00:42:06;;;;;;;197.98;189.52;;;13.50;99.90;;;;;;5036535;28;20229;-72
2022/05/21 00:44:31;;;;;;;191.90;183.80;;;13.40;99.90;;;;;;5034095;28;20189;-73
2022/05/21 00:46:57;;;;;;;195.20;186.07;;;13.30;99.90;;;;;;5042223;28;20187;-73
2022/05/21 00:49:31;;;;;;;208.05;198.93;;;13.30;99.90;;;;;;5053852;28;20194;-74
2022/05/21 00:52:17;;;;;;;194.50;186.23;;;13.10;99.90;;;;;;5044605;28;20194;-73
2022/05/21 00:54:56;;;;;;;197.95;189.45;;;13.20;99.90;;;;;;5053732;28;20177;-72
2022/05/21 00:57:24;;;;;;;196.32;187.88;;;13.20;99.90;;;;;;5048470;28;20174;-73
2022/05/21 00:59:56;;;;;;;193.40;185.25;;;13.10;99.90;;;;;;5035825;28;20226;-73
2022/05/21 01:02:36;;;;;;;202.80;193.80;;;13.10;99.90;;;;;;5036232;28;20214;-73
2022/05/21 01:05:06;;;;;;;200.25;191.38;;;13.00;99.90;;;;;;5035839;28;20230;-73
2022/05/21 01:07:32;;;;;;;203.43;194.27;;;13.10;99.90;;;;;;5037770;28;20602;-74
2022/05/21 01:10:00;;;;;;;200.23;191.35;;;13.00;99.90;;;;;;5049363;28;20218;-73
2022/05/21 01:12:30;;;;;;;219.75;210.18;;;13.00;99.90;;;;;;5018719;28;20554;-73
2022/05/21 01:15:00;;;;;;;208.40;198.77;;;13.20;99.90;;;;;;5051238;28;20224;-73
2022/05/21 01:17:26;;;;;;;199.57;191.05;;;13.10;99.90;;;;;;5039390;28;20636;-74
2022/05/21 01:20:26;;;;;;;211.35;202.57;;;13.00;99.90;;;;;;5034551;28;20206;-73
2022/05/21 01:22:56;;;;;;;206.45;197.70;;;12.90;99.90;;;;;;5034395;28;20195;-73
2022/05/21 01:25:24;;;;;;;204.90;195.63;;;12.90;99.90;;;;;;5067547;28;20236;-74
2022/05/21 01:27:51;;;;;;;216.82;207.38;;;12.90;99.90;;;;;;5034202;28;20179;-77
2022/05/21 01:30:23;;;;;;;207.60;198.90;;;12.80;99.90;;;;;;5049265;28;20540;-74
2022/05/21 01:32:50;;;;;;;219.15;209.82;;;12.90;99.90;;;;;;5035479;28;20190;-75
2022/05/21 01:35:18;;;;;;;211.00;201.68;;;12.80;99.90;;;;;;5051976;28;20187;-73
2022/05/21 01:37:47;;;;;;;212.27;202.57;;;12.80;99.90;;;;;;5053956;28;20189;-72
2022/05/21 01:40:15;;;;;;;219.55;210.13;;;12.80;99.90;;;;;;5050611;28;20302;-73
2022/05/21 01:42:41;;;;;;;225.13;215.68;;;12.80;99.90;;;;;;5017597;28;20224;-73
2022/05/21 01:45:07;;;;;;;213.55;204.63;;;12.70;99.90;;;;;;5051073;28;20206;-72
2022/05/21 01:47:34;;;;;;;218.70;209.60;;;12.80;99.90;;;;;;5033922;28;20185;-73
2022/05/21 01:50:01;;;;;;;218.13;208.45;;;12.70;99.90;;;;;;5044816;28;20201;-72
2022/05/21 01:52:28;;;;;;;249.40;238.48;;;12.70;99.90;;;;;;5035289;28;20187;-72
2022/05/21 01:54:53;;;;;;;239.35;229.00;;;12.70;99.90;;;;;;5032927;28;20604;-73
2022/05/21 01:57:19;;;;;;;237.55;227.52;;;12.80;99.90;;;;;;5049751;28;20274;-72
2022/05/21 01:59:45;;;;;;;220.68;211.10;;;12.80;99.90;;;;;;5033618;28;20309;-72
2022/05/21 02:02:11;;;;;;;215.27;206.18;;;12.70;99.90;;;;;;5035217;28;20205;-72
2022/05/21 02:04:37;;;;;;;217.45;208.27;;;12.70;99.90;;;;;;5017769;28;20187;-72
2022/05/21 02:07:03;;;;;;;221.85;212.32;;;12.60;99.90;;;;;;5017909;28;20201;-76
2022/05/21 02:09:29;;;;;;;233.15;223.55;;;12.60;99.90;;;;;;5033930;28;20199;-72
2022/05/21 02:11:55;;;;;;;227.15;217.88;;;12.60;99.90;;;;;;5035206;28;20277;-72
2022/05/21 02:14:21;;;;;;;232.90;223.35;;;12.50;99.90;;;;;;5033321;28;20187;-72
2022/05/21 02:16:47;;;;;;;221.50;211.93;;;12.50;99.90;;;;;;5047134;28;20198;-72
2022/05/21 02:19:15;;;;;;;237.00;226.95;;;12.60;99.90;;;;;;5021598;28;20178;-74
2022/05/21 02:21:41;;;;;;;227.18;217.40;;;12.70;99.90;;;;;;5047721;28;20187;-72
2022/05/21 02:24:10;;;;;;;225.93;215.90;;;12.60;99.90;;;;;;5033624;28;20273;-72
2022/05/21 02:26:38;;;;;;;245.10;234.95;;;12.60;99.90;;;;;;5040107;28;20192;-73
2022/05/21 02:29:05;;;;;;;236.52;226.55;;;12.60;99.90;;;;;;5025779;28;20286;-72
2022/05/21 02:31:31;;;;;;;237.93;227.85;;;12.70;99.90;;;;;;5032746;28;20191;-72
2022/05/21 02:33:57;;;;;;;245.73;235.43;;;12.70;99.90;;;;;;5049484;28;20186;-72
2022/05/21 02:39:25;;;;;;;260.48;249.57;;;12.70;99.90;;;;;;5034125;28;20240;-73
2022/05/21 02:39:28;;;;;;;252.05;241.93;;;12.50;99.90;;;;;;5045526;28;20194;-72
2022/05/21 02:41:56;;;;;;;235.43;225.93;;;12.50;99.90;;;;;;5032997;28;20191;-72
2022/05/21 02:44:22;;;;;;;254.80;244.20;;;12.40;99.90;;;;;;5034197;28;20648;-73
2022/05/21 02:46:47;;;;;;;241.98;232.13;;;12.50;99.90;;;;;;5034405;28;20191;-72
2022/05/21 02:49:13;;;;;;;258.02;247.18;;;12.60;99.90;;;;;;5019856;28;20189;-74
2022/05/21 02:51:39;;;;;;;256.75;246.13;;;12.60;99.90;;;;;;5052759;28;20174;-72
2022/05/21 02:54:06;;;;;;;246.40;236.05;;;12.50;99.90;;;;;;5032987;28;20202;-72
2022/05/21 02:56:33;;;;;;;255.43;244.77;;;12.40;99.90;;;;;;5032876;28;20236;-72
2022/05/21 02:58:58;;;;;;;243.07;232.90;;;12.30;99.90;;;;;;5033423;28;20663;-73
2022/05/21 03:01:24;;;;;;;252.02;241.82;;;12.40;99.90;;;;;;5032111;28;20226;-74
2022/05/21 03:03:50;;;;;;;247.23;236.93;;;12.50;99.90;;;;;;5073860;28;20694;-72
2022/05/21 03:06:15;;;;;;;267.67;256.67;;;12.60;99.90;;;;;;5048902;28;20186;-73
2022/05/21 03:11:25;;;;;;;255.68;245.10;;;12.60;99.90;;;;;;5032612;28;20253;-72
2022/05/21 03:13:50;;;;;;;252.95;242.38;;;12.40;99.90;;;;;;5033247;28;20199;-72
2022/05/21 03:16:16;;;;;;;265.63;254.98;;;12.30;99.90;;;;;;5040526;28;20193;-73
2022/05/21 03:18:42;;;;;;;268.85;258.05;;;12.30;99.90;;;;;;5032304;28;20186;-72
2022/05/21 03:21:07;;;;;;;263.92;253.32;;;12.40;99.90;;;;;;5032322;28;20264;-73
2022/05/21 03:23:33;;;;;;;256.00;245.52;;;12.40;99.90;;;;;;5032613;28;20199;-75
2022/05/21 03:25:59;;;;;;;271.05;259.50;;;12.30;99.90;;;;;;5045269;28;20186;-73
2022/05/21 03:28:25;;;;;;;264.95;253.98;;;12.20;99.90;;;;;;5032216;28;20281;-73
2022/05/21 03:30:51;;;;;;;267.23;256.35;;;12.30;99.90;;;;;;5045124;28;20260;-73
2022/05/21 03:33:17;;;;;;;270.25;259.45;;;12.30;99.90;;;;;;5037937;28;20191;-73
2022/05/21 03:35:43;;;;;;;286.70;275.13;;;12.30;99.90;;;;;;5032658;28;20213;-73
2022/05/21 03:38:09;;;;;;;272.50;260.70;;;12.40;99.90;;;;;;5032202;28;20187;-73
2022/05/21 03:40:35;;;;;;;291.27;279.58;;;12.40;99.90;;;;;;5031975;28;20713;-73
2022/05/21 03:43:01;;;;;;;310.73;298.05;;;12.40;99.90;;;;;;5037463;28;20198;-72
2022/05/21 03:45:27;;;;;;;312.38;299.73;;;12.20;99.90;;;;;;5035265;28;20202;-75
2022/05/21 03:47:53;;;;;;;308.38;296.02;;;12.30;99.90;;;;;;5043217;28;20178;-72
2022/05/21 03:50:22;;;;;;;310.70;297.52;;;12.30;99.90;;;;;;5045337;28;20224;-73
2022/05/21 03:52:48;;;;;;;285.67;274.33;;;12.20;99.90;;;;;;5032936;28;20191;-73
2022/05/21 03:55:14;;;;;;;312.35;299.88;;;12.10;99.90;;;;;;5034091;28;20564;-75
2022/05/21 03:57:39;;;;;;;306.90;294.73;;;12.00;99.90;;;;;;5053447;28;20554;-73
2022/05/21 04:00:09;;;;;;;322.45;309.70;;;12.00;99.90;;;;;;5031499;28;20234;-72
2022/05/21 04:02:36;;;;;;;312.08;299.50;;;12.20;99.90;;;;;;5038555;28;20549;-73
2022/05/21 04:05:06;;;;;;;298.85;286.50;;;12.20;99.90;;;;;;5037350;28;20651;-72
2022/05/21 04:07:32;;;;;;;320.77;308.27;;;12.10;99.90;;;;;;5032275;28;20248;-73
2022/05/21 04:09:58;;;;;;;316.98;304.15;;;12.20;99.90;;;;;;5033815;28;20186;-72
2022/05/21 04:12:25;;;;;;;320.85;307.73;;;12.30;99.90;;;;;;5031583;28;20561;-72
2022/05/21 04:14:50;;;;;;;326.55;313.38;;;12.50;99.90;;;;;;5042169;28;20212;-72
2022/05/21 04:17:16;;;;;;;322.38;309.85;;;12.50;99.90;;;;;;5050890;28;20244;-73
2022/05/21 04:19:42;;;;;;;315.77;303.25;;;12.40;99.90;;;;;;5031847;28;20226;-72
2022/05/21 04:22:09;;;;;;;315.90;303.45;;;12.50;99.90;;;;;;5035150;28;20240;-72
2022/05/21 04:24:35;;;;;;;295.30;283.67;;;12.60;99.90;;;;;;5051744;28;20217;-72
2022/05/21 04:27:00;;;;;;;292.52;280.38;;;12.90;99.90;;;;;;5036848;28;20218;-73
2022/05/21 04:29:26;;;;;;;276.80;265.98;;;13.10;99.90;;;;;;5036130;28;20194;-73
2022/05/21 04:31:52;;;;;;;263.83;253.18;;;13.20;99.90;;;;;;5035156;28;20187;-73
2022/05/21 04:34:18;;;;;;;241.80;232.25;;;13.20;99.90;;;;;;5041353;28;20186;-74
2022/05/21 04:36:44;;;;;;;222.30;213.40;;;13.20;99.90;;;;;;5043389;28;20327;-73
2022/05/21 04:39:10;;;;;;;207.82;199.00;;;13.30;99.90;;;;;;5035742;28;20298;-74
2022/05/21 04:41:36;;;;;;;192.02;183.27;;;13.40;99.90;;;;;;5030181;28;20284;-73
2022/05/21 04:44:02;;;;;;;186.70;178.82;;;13.50;99.90;;;;;;5036418;28;20187;-74
2022/05/21 04:46:28;;;;;;;185.07;177.02;;;13.70;99.90;;;;;;5046938;28;20267;-73
2022/05/21 04:48:54;;;;;;;185.82;177.93;;;13.80;99.90;;;;;;5036625;28;20201;-73
2022/05/21 04:51:20;;;;;;;173.63;166.40;;;13.70;99.90;;;;;;5035887;28;20183;-73
2022/05/21 04:53:46;;;;;;;167.32;159.75;;;13.80;99.90;;;;;;5034863;28;20213;-73
2022/05/21 04:56:12;;;;;;;159.48;152.82;;;13.90;99.90;;;;;;5068273;28;20728;-73
2022/05/21 04:58:38;;;;;;;143.45;137.27;;;13.90;99.90;;;;;;5036208;28;20187;-73
2022/05/21 05:01:04;;;;;;;162.75;155.25;;;14.00;99.90;;;;;;5067816;28;20769;-73
2022/05/21 05:03:31;;;;;;;154.68;147.18;;;14.00;99.90;;;;;;5035125;28;20205;-74
2022/05/21 05:05:57;;;;;;;147.27;140.68;;;14.00;99.90;;;;;;5032982;28;20190;-73
2022/05/21 05:08:23;;;;;;;138.98;132.57;;;14.10;99.90;;;;;;5049980;28;20186;-73
2022/05/21 05:10:50;;;;;;;133.30;127.32;;;14.10;99.90;;;;;;5035080;28;20214;-72
2022/05/21 05:13:16;;;;;;;123.95;118.60;;;14.30;99.90;;;;;;5035785;28;20182;-74
2022/05/21 05:15:46;;;;;;;134.90;128.25;;;14.40;99.90;;;;;;5035770;28;20190;-73
2022/05/21 05:18:21;;;;;;;128.35;122.15;;;14.40;99.90;;;;;;5067657;28;20201;-73
2022/05/21 05:20:47;;;;;;;125.88;119.47;;;14.50;99.90;;;;;;5035521;28;20245;-73
2022/05/21 05:23:13;;;;;;;120.90;115.05;;;14.50;99.90;;;;;;5050691;28;20178;-73
2022/05/21 05:25:40;;;;;;;127.43;121.25;;;14.50;99.90;;;;;;5046801;28;20662;-73
2022/05/21 05:28:14;;;;;;;119.10;113.32;;;14.50;99.90;;;;;;5035518;28;20210;-74
2022/05/21 05:30:39;;;;;;;121.50;115.68;;;14.60;99.90;;;;;;5033691;28;20182;-74
2022/05/21 05:33:05;;;;;;;120.55;114.80;;;14.60;99.90;;;;;;5049508;28;20244;-73
2022/05/21 05:35:31;;;;;;;126.45;120.03;;;14.70;99.90;;;;;;5035577;28;20186;-73
2022/05/21 05:37:56;;;;;;;121.55;115.40;;;14.80;99.90;;;;;;5041342;28;20197;-73
2022/05/21 05:40:22;;;;;;;117.50;111.93;;;14.80;99.90;;;;;;5037078;28;20292;-73
2022/05/21 05:42:48;;;;;;;125.78;119.95;;;15.00;99.90;;;;;;5053820;28;20635;-73
2022/05/21 05:45:15;;;;;;;123.35;117.53;;;15.20;99.90;;;;;;5034522;28;20183;-73
2022/05/21 05:47:41;;;;;;;139.35;132.55;;;15.30;99.90;;;;;;5047477;28;20531;-73
2022/05/21 05:50:08;;;;;;;134.32;128.10;;;15.30;99.90;;;;;;5055399;28;20178;-73
2022/05/21 05:52:34;;;;;;;179.10;170.88;;;15.40;99.90;;;;;;5052256;28;20185;-73
2022/05/21 05:54:59;;;;;;;168.50;160.65;;;15.70;99.90;;;;;;5025152;28;20201;-78
2022/05/21 05:57:25;;;;;;;194.25;185.20;;;15.70;99.90;;;;;;5033641;28;20190;-73
2022/05/21 05:59:51;;;;;;;173.77;166.27;;;15.70;99.90;;;;;;5066256;28;20226;-74
2022/05/21 06:05:04;;;;;;;194.68;186.25;;;15.90;99.90;;;;;;5035593;28;20190;-77
2022/05/21 06:07:33;;;;;;;194.95;186.30;;;15.80;99.90;;;;;;5039045;28;20647;-75
2022/05/21 06:10:04;;;;;;;185.45;177.30;;;16.00;99.90;;;;;;5035395;28;20521;-77
2022/05/21 06:12:31;;;;;;;204.25;195.15;;;16.10;99.90;;;;;;5050267;28;20182;-78
2022/05/21 06:14:58;;;;;;;228.85;219.18;;;16.10;99.90;;;;;;5034681;28;20170;-77
2022/05/21 06:17:25;;;;;;;228.35;218.38;;;16.20;99.90;;;;;;5054636;28;20186;-76
2022/05/21 06:19:52;;;;;;;245.55;235.20;;;16.30;99.90;;;;;;5036430;28;20306;-78
2022/05/21 06:22:18;;;;;;;316.23;303.45;;;16.50;99.90;;;;;;5032954;28;20202;-77
2022/05/21 06:24:45;;;;;;;346.48;332.50;;;16.60;99.90;;;;;;5041519;28;20226;-77
2022/05/21 06:27:10;;;;;;;391.48;375.15;;;16.70;99.90;;;;;;5040963;28;20530;-78
2022/05/21 06:29:36;;;;;;;353.17;338.60;;;17.10;99.90;;;;;;5037228;28;20193;-78
2022/05/21 06:32:06;;;;;;;466.50;445.77;;;17.20;99.90;;;;;;5033228;28;20261;-78
2022/05/21 06:34:36;;;;;;;522.90;498.92;;;17.10;99.90;;;;;;5066176;28;20270;-77
2022/05/21 06:37:10;;;;;;;519.33;496.23;;;17.10;99.90;;;;;;5033991;28;20618;-73
2022/05/21 06:39:37;;;;;;;501.13;478.40;;;17.30;99.90;;;;;;5034112;28;20178;-64
2022/05/21 06:42:04;;;;;;;540.78;516.15;;;17.60;99.90;;;;;;5033948;28;20197;-64
2022/05/21 06:44:30;;;;;;;588.90;560.80;;;17.80;99.90;;;;;;5034303;28;20611;-64
2022/05/21 06:46:56;;;;;;;611.65;582.00;;;17.80;99.90;;;;;;5033801;28;20191;-67
2022/05/21 06:49:23;;;;;;;648.67;615.17;;;17.90;99.90;;;;;;5046836;28;20201;-67
2022/05/21 06:51:52;;;;;;;693.35;657.50;;;17.80;99.90;;;;;;5034792;28;20248;-67
2022/05/21 06:54:18;;;;;;;677.33;642.50;;;17.70;99.90;;;;;;5043394;28;20187;-67
2022/05/21 06:56:44;;;;;;;635.42;603.50;;;17.90;99.90;;;;;;5049432;28;20245;-67
2022/05/21 06:59:10;;;;;;;626.35;596.08;;;18.30;99.90;;;;;;5034412;28;20226;-67
2022/05/21 07:01:35;;;;;;;673.58;639.20;;;18.60;99.90;;;;;;5021786;28;20225;-66
2022/05/21 07:04:01;;;;;;;700.28;663.92;;;18.80;99.90;;;;;;5052792;28;20201;-67
2022/05/21 07:09:11;;;;;;;801.13;754.40;;;19.20;99.90;;;;;;5033735;28;20197;-66
2022/05/21 07:11:37;;;;;;;823.72;775.17;;;19.70;99.90;;;;;;5048359;28;20190;-65
2022/05/21 07:14:03;;;;;;;912.58;854.50;;;20.60;99.90;;;;;;5032598;28;20183;-75
2022/05/21 07:16:32;;;;;;;949.38;887.88;;;21.20;99.90;;;;;;5033009;28;20183;-70
2022/05/21 07:18:58;;;;;;;1027.38;957.22;;;21.80;99.90;;;;;;5025489;28;20186;-72
2022/05/21 07:21:24;;;;;;;1038.97;967.25;;;22.10;99.90;;;;;;5033027;28;20301;-75
2022/05/21 07:23:50;;;;;;;1169.20;999.90;;;22.60;99.90;;;;;;5039326;28;20194;-74
2022/05/21 07:26:17;;;;;;;1226.00;999.90;;;22.90;99.90;;;;;;5065680;28;20182;-74
2022/05/21 07:28:43;;;;;;;1424.63;999.90;;;22.70;99.90;;;;;;5032480;28;20183;-74
2022/05/21 07:31:08;;;;;;;1596.00;999.90;;;22.70;99.90;;;;;;5031035;28;20549;-74
2022/05/21 07:33:37;;;;;;;1153.35;999.90;;;23.10;99.90;;;;;;5032018;28;20193;-74
2022/05/21 07:36:03;;;;;;;1162.05;999.90;;;23.00;99.90;;;;;;5043170;28;20543;-74
2022/05/21 07:38:29;;;;;;;1167.82;999.90;;;22.60;99.90;;;;;;5033151;28;20186;-74
2022/05/21 07:40:55;;;;;;;1176.38;999.90;;;22.40;99.90;;;;;;5048328;28;20233;-73
2022/05/21 07:43:30;;;;;;;1169.22;999.90;;;21.40;99.90;;;;;;5035126;28;20187;-74
2022/05/21 07:45:57;;;;;;;1164.28;999.90;;;20.90;99.90;;;;;;5033690;28;20190;-75
2022/05/21 07:48:24;;;;;;;1151.50;999.90;;;20.60;99.90;;;;;;5031765;28;20187;-75
2022/05/21 07:51:06;;;;;;;1165.47;999.90;;;20.40;99.90;;;;;;5033605;28;20194;-75
2022/05/21 07:53:36;;;;;;;1184.88;999.90;;;20.20;99.90;;;;;;5051276;28;20178;-74
2022/05/21 07:56:02;;;;;;;1166.57;999.90;;;20.20;99.90;;;;;;5043631;28;20265;-74
2022/05/21 07:58:31;;;;;;;1129.55;999.90;;;20.30;99.90;;;;;;5036436;28;20190;-75
2022/05/21 08:00:57;;;;;;;1128.43;999.90;;;21.50;99.90;;;;;;5037235;28;20309;-75
2022/05/21 08:03:23;;;;;;;1146.63;999.90;;;23.10;99.90;;;;;;5035878;28;20225;-76
2022/05/21 08:05:49;;;;;;;1999.90;999.90;;;24.60;99.90;;;;;;5045836;28;20227;-76
2022/05/21 08:08:16;;;;;;;1999.90;999.90;;;25.20;99.90;;;;;;5037182;28;20182;-75
2022/05/21 08:10:44;;;;;;;1999.90;999.90;;;26.00;99.90;;;;;;5037266;28;20190;-76
2022/05/21 08:13:11;;;;;;;1999.90;999.90;;;27.00;99.90;;;;;;5037158;28;20212;-75
2022/05/21 08:15:37;;;;;;;1999.90;999.90;;;27.00;99.90;;;;;;5046687;28;20182;-75
2022/05/21 08:18:04;;;;;;;1999.90;999.90;;;27.50;99.90;;;;;;5056598;28;20193;-75
2022/05/21 08:20:40;;;;;;;1999.90;999.90;;;28.00;99.90;;;;;;5035613;28;20228;-75
2022/05/21 08:28:40;;;;;;;1999.90;999.90;;;27.20;99.90;;;;;;5048519;28;20264;-76
2022/05/21 08:31:05;;;;;;;1999.90;999.90;;;27.70;99.90;;;;;;5042943;28;20218;-76
2022/05/21 08:33:32;;;;;;;1999.90;999.90;;;27.90;99.90;;;;;;5036721;28;20205;-76
2022/05/21 08:35:57;;;;;;;1999.90;999.90;;;28.00;99.90;;;;;;5036749;28;20189;-76
2022/05/21 08:38:24;;;;;;;1999.90;999.90;;;27.90;99.90;;;;;;5035737;28;20186;-76
2022/05/21 08:40:55;;;;;;;1999.90;999.90;;;27.30;99.90;;;;;;5036307;28;20267;-76
2022/05/21 08:43:35;;;;;;;1999.90;999.90;;;26.80;99.90;;;;;;5036106;28;20178;-76
2022/05/21 08:46:15;;;;;;;1999.90;999.90;;;26.20;99.90;;;;;;5055825;28;20216;-76
2022/05/21 08:48:49;;;;;;;1999.90;999.90;;;25.40;99.90;;;;;;5048330;28;20182;-76
2022/05/21 08:51:23;;;;;;;1999.90;999.90;;;25.10;99.90;;;;;;5050458;28;20185;-76
2022/05/21 08:53:51;;;;;;;1999.90;999.90;;;24.80;99.90;;;;;;5035642;28;20200;-76
2022/05/21 08:56:22;;;;;;;1999.90;999.90;;;23.70;99.90;;;;;;5036064;28;20720;-75
2022/05/21 08:58:54;;;;;;;1999.90;999.90;;;23.60;99.90;;;;;;5043774;28;20190;-76
2022/05/21 09:01:22;;;;;;;1999.90;999.90;;;23.60;99.90;;;;;;5038691;28;20313;-76
2022/05/21 09:03:50;;;;;;;1999.90;999.90;;;24.70;99.90;;;;;;5034478;28;20546;-76
2022/05/21 09:06:19;;;;;;;1999.90;999.90;;;25.50;99.90;;;;;;5035550;28;20201;-77
2022/05/21 09:09:10;;;;;;;1999.90;999.90;;;26.10;99.90;;;;;;5034868;28;20197;-76
2022/05/21 09:11:56;;;;;;;1999.90;999.90;;;26.00;99.90;;;;;;5036108;28;20209;-76
2022/05/21 09:14:42;;;;;;;1999.90;999.90;;;25.50;99.90;;;;;;5036025;28;20181;-76
2022/05/21 09:17:17;;;;;;;1999.90;999.90;;;26.10;99.90;;;;;;5036354;28;20178;-76
2022/05/21 09:19:53;;;;;;;1999.90;999.90;;;26.50;99.90;;;;;;5035233;28;20196;-77
2022/05/21 09:22:23;;;;;;;1999.90;999.90;;;27.30;99.90;;;;;;5040224;28;20170;-77
2022/05/21 09:24:56;;;;;;;1999.90;999.90;;;27.50;99.90;;;;;;5037754;28;20186;-76
2022/05/21 09:27:42;;;;;;;1999.90;999.90;;;27.00;99.90;;;;;;5041089;28;20185;-77
2022/05/21 09:30:28;;;;;;;1999.90;999.90;;;25.70;99.90;;;;;;5047596;28;20186;-76
2022/05/21 09:32:57;;;;;;;1999.90;999.90;;;24.70;99.90;;;;;;5035504;28;20185;-76
2022/05/21 09:35:34;;;;;;;1999.90;999.90;;;24.30;99.90;;;;;;5035220;28;20179;-76
2022/05/21 09:38:30;;;;;;;1999.90;999.90;;;24.10;99.90;;;;;;5036184;28;20236;-76
2022/05/21 09:41:09;;;;;;;1999.90;999.90;;;24.50;99.90;;;;;;5067403;28;20366;-76
2022/05/21 09:46:21;;;;;;;1999.90;999.90;;;24.60;99.90;;;;;;5035907;28;20301;-74
2022/05/21 09:48:48;;;;;;;1999.90;999.90;;;24.30;99.90;;;;;;5035156;28;20667;-74
2022/05/21 09:51:29;;;;;;;1999.90;999.90;;;24.20;99.90;;;;;;5066962;28;20264;-74
2022/05/21 09:53:57;;;;;;;1999.90;999.90;;;23.90;99.90;;;;;;5035211;28;20705;-77
2022/05/21 09:56:33;;;;;;;1999.90;999.90;;;24.10;99.90;;;;;;5035001;28;20191;-76
2022/05/21 09:59:16;;;;;;;1999.90;999.90;;;23.80;99.90;;;;;;5050889;28;20182;-76
2022/05/21 10:02:13;;;;;;;1999.90;999.90;;;23.50;99.90;;;;;;5048656;28;20233;-76
2022/05/21 10:04:58;;;;;;;1999.90;999.90;;;23.00;99.90;;;;;;5039300;28;20193;-74
2022/05/21 10:10:59;;;;;;;1999.90;999.90;;;23.00;99.90;;;;;;5034335;28;20208;-74
2022/05/21 10:13:33;;;;;;;1999.90;999.90;;;22.60;99.90;;;;;;5034639;28;20217;-74
2022/05/21 10:16:37;;;;;;;1999.90;999.90;;;22.40;99.90;;;;;;5066631;28;20269;-75
2022/05/21 10:19:03;;;;;;;1999.90;999.90;;;22.40;99.90;;;;;;5053217;28;20189;-76
2022/05/21 10:21:44;;;;;;;1999.90;999.90;;;22.40;99.90;;;;;;5050205;28;20236;-76
2022/05/21 10:24:34;;;;;;;1999.90;999.90;;;22.70;99.90;;;;;;5045616;28;20639;-76
2022/05/21 10:27:39;;;;;;;1999.90;999.90;;;22.90;99.90;;;;;;5033993;28;20257;-75
2022/05/21 10:30:26;;;;;;;1999.90;999.90;;;23.10;99.90;;;;;;5024659;28;20240;-76
2022/05/21 10:33:10;;;;;;;1999.90;999.90;;;22.90;99.90;;;;;;5033330;28;20201;-75
2022/05/21 10:36:00;;;;;;;1999.90;999.90;;;22.80;99.90;;;;;;5034114;28;20271;-76
2022/05/21 10:38:59;;;;;;;1999.90;999.90;;;22.80;99.90;;;;;;5034162;28;20183;-74
2022/05/21 10:41:52;;;;;;;1999.90;999.90;;;22.60;99.90;;;;;;5033816;28;20671;-74
2022/05/21 10:44:38;;;;;;;1999.90;999.90;;;22.70;99.90;;;;;;5034482;28;20257;-74
2022/05/21 10:47:24;;;;;;;1999.90;999.90;;;22.50;99.90;;;;;;5032647;28;20202;-76
2022/05/21 10:50:26;;;;;;;1999.90;999.90;;;22.40;99.90;;;;;;5034702;28;20195;-74
2022/05/21 10:53:11;;;;;;;1999.90;999.90;;;22.30;99.90;;;;;;5041656;28;20177;-76
2022/05/21 10:55:53;;;;;;;1999.90;999.90;;;22.30;99.90;;;;;;5049935;28;20194;-76
2022/05/21 10:58:36;;;;;;;1999.90;999.90;;;22.30;99.90;;;;;;5047193;28;20178;-75
2022/05/21 11:01:21;;;;;;;1999.90;999.90;;;22.10;99.90;;;;;;5033484;28;20276;-76
2022/05/21 11:04:11;;;;;;;1999.90;999.90;;;22.00;99.90;;;;;;5032509;28;20255;-75
2022/05/21 11:07:03;;;;;;;1999.90;999.90;;;22.00;99.90;;;;;;5033557;28;20252;-76
2022/05/21 11:09:49;;;;;;;1999.90;999.90;;;22.10;99.90;;;;;;5033376;28;20186;-75
2022/05/21 11:12:25;;;;;;;1999.90;999.90;;;22.30;99.90;;;;;;5033672;28;20171;-75
2022/05/21 11:15:03;;;;;;;1999.90;999.90;;;22.60;99.90;;;;;;5041136;28;20187;-75
2022/05/21 11:17:51;;;;;;;1999.90;999.90;;;22.80;99.90;;;;;;5034067;28;20243;-75
2022/05/21 11:20:30;;;;;;;1999.90;999.90;;;22.70;99.90;;;;;;5039314;28;20264;-75
2022/05/21 11:23:02;;;;;;;1999.90;999.90;;;22.90;99.90;;;;;;5036666;28;20553;-74
2022/05/21 11:25:57;;;;;;;1999.90;999.90;;;22.80;99.90;;;;;;5032150;28;20210;-74
2022/05/21 11:28:29;;;;;;;1999.90;999.90;;;22.60;99.90;;;;;;5037859;28;20178;-75
2022/05/21 11:30:59;;;;;;;1999.90;999.90;;;22.80;99.90;;;;;;5047311;28;20665;-74
2022/05/21 11:39:04;;;;;;;1999.90;999.90;;;22.90;99.90;;;;;;5042149;28;20661;-74
2022/05/21 11:42:02;;;;;;;1999.90;999.90;;;22.80;99.90;;;;;;5043234;28;20259;-75
2022/05/21 11:44:58;;;;;;;1999.90;999.90;;;22.60;99.90;;;;;;5020342;28;20213;-74
2022/05/21 11:47:46;;;;;;;1999.90;999.90;;;22.70;99.90;;;;;;5033360;28;20178;-74
2022/05/21 11:50:17;;;;;;;1999.90;999.90;;;22.50;99.90;;;;;;5033202;28;20191;-74
2022/05/21 11:52:54;;;;;;;1999.90;999.90;;;22.40;99.90;;;;;;5032983;28;20194;-74
2022/05/21 11:55:22;;;;;;;1999.90;999.90;;;22.00;99.90;;;;;;5033498;28;20186;-74
2022/05/21 11:57:58;;;;;;;1999.90;999.90;;;22.00;99.90;;;;;;5033580;28;20193;-74
2022/05/21 12:00:24;;;;;;;1999.90;999.90;;;22.10;99.90;;;;;;5033200;28;20300;-74
2022/05/21 12:02:58;;;;;;;1999.90;999.90;;;22.00;99.90;;;;;;5032052;28;20302;-74
2022/05/21 12:05:46;;;;;;;1999.90;999.90;;;22.20;99.90;;;;;;5038199;28;20231;-74
2022/05/21 12:08:31;;;;;;;1999.90;999.90;;;22.00;99.90;;;;;;5040237;28;20186;-74
2022/05/21 12:11:24;;;;;;;1999.90;999.90;;;22.00;99.90;;;;;;5031995;28;20194;-74
2022/05/21 12:14:06;;;;;;;1999.90;999.90;;;22.00;99.90;;;;;;5033096;28;20611;-74
2022/05/21 12:16:32;;;;;;;1999.90;999.90;;;22.20;99.90;;;;;;5033572;28;20644;-75
2022/05/21 12:19:00;;;;;;;1999.90;999.90;;;22.30;99.90;;;;;;5051967;28;20216;-75
2022/05/21 12:21:29;;;;;;;1999.90;999.90;;;22.30;99.90;;;;;;5033194;28;20218;-75
2022/05/21 12:23:58;;;;;;;1999.90;999.90;;;22.30;99.90;;;;;;5035757;28;20186;-74
2022/05/21 12:26:32;;;;;;;1999.90;999.90;;;22.50;99.90;;;;;;5044207;28;20187;-74
2022/05/21 12:29:12;;;;;;;1999.90;999.90;;;22.30;99.90;;;;;;5033382;28;20182;-74
2022/05/21 12:31:40;;;;;;;1999.90;999.90;;;22.00;99.90;;;;;;5031343;28;20260;-75
2022/05/21 12:34:23;;;;;;;1999.90;999.90;;;21.90;99.90;;;;;;5050396;28;20179;-74
2022/05/21 12:37:15;;;;;;;1999.90;999.90;;;22.10;99.90;;;;;;5046283;28;20210;-75
2022/05/21 12:40:02;;;;;;;1999.90;999.90;;;21.90;99.90;;;;;;5033047;28;20544;-75
2022/05/21 12:42:43;;;;;;;1999.90;999.90;;;22.00;99.90;;;;;;5048587;28;20539;-76
2022/05/21 12:45:14;;;;;;;1999.90;999.90;;;22.10;99.90;;;;;;5034863;28;20190;-75
2022/05/21 12:47:44;;;;;;;1999.90;999.90;;;22.10;99.90;;;;;;5043004;28;20583;-75